Home > Products > Valid Products > FWO

000
SHUS65 KGJT 012015
FWOGJT

DAILY FIRE WEATHER OBSERVATION
NATIONAL WEATHER SERVICE GRAND JUNCTION CO
212 PM MDT SAT AUG 1 2015

STATE OF THE WEATHER (W)               1
DRY BULB TEMPERATURE                   87   DEGREES FAHRENHEIT
RELATIVE HUMIDITY (RH)                 27   PERCENT
LIGHTNING ACTIVITY LEVEL
  (LAL - MIDNIGHT TO 2 PM)             3
WIND DIRECTION                         225  DEGREES (C IF CALM)
WIND SPEED                             8    MPH
MAX TEMP (2 PM - 2 PM)                 95   DEGREES FAHRENHEIT
MIN TEMP (2 PM - 2 PM)                 67   DEGREES FAHRENHEIT
MAX RH (2 PM - 2 PM)                   45   PERCENT
MIN RH (2 PM - 2 PM)                   9    PERCENT
PCPN DURATION                          0.0  HOURS
PCPN AMT (2 PM - 2 PM)                 0.0  INCHES
LAL (2 PM - 2 PM)                      3

$$

METAR KGJT 011953Z 24007KT 10SM CLR 31/09 A3011 RMK AO2 LTG DSNT
      E-SW SLP117 T03060094




000
SHUS65 KGJT 012015
FWOGJT

DAILY FIRE WEATHER OBSERVATION
NATIONAL WEATHER SERVICE GRAND JUNCTION CO
212 PM MDT SAT AUG 1 2015

STATE OF THE WEATHER (W)               1
DRY BULB TEMPERATURE                   87   DEGREES FAHRENHEIT
RELATIVE HUMIDITY (RH)                 27   PERCENT
LIGHTNING ACTIVITY LEVEL
  (LAL - MIDNIGHT TO 2 PM)             3
WIND DIRECTION                         225  DEGREES (C IF CALM)
WIND SPEED                             8    MPH
MAX TEMP (2 PM - 2 PM)                 95   DEGREES FAHRENHEIT
MIN TEMP (2 PM - 2 PM)                 67   DEGREES FAHRENHEIT
MAX RH (2 PM - 2 PM)                   45   PERCENT
MIN RH (2 PM - 2 PM)                   9    PERCENT
PCPN DURATION                          0.0  HOURS
PCPN AMT (2 PM - 2 PM)                 0.0  INCHES
LAL (2 PM - 2 PM)                      3

$$

METAR KGJT 011953Z 24007KT 10SM CLR 31/09 A3011 RMK AO2 LTG DSNT
      E-SW SLP117 T03060094





000
SHUS65 KGJT 312016
FWOGJT

DAILY FIRE WEATHER OBSERVATION
NATIONAL WEATHER SERVICE GRAND JUNCTION CO
212 PM MDT FRI JUL 31 2015

STATE OF THE WEATHER (W)               0
DRY BULB TEMPERATURE                   89   DEGREES FAHRENHEIT
RELATIVE HUMIDITY (RH)                 19   PERCENT
LIGHTNING ACTIVITY LEVEL
  (LAL - MIDNIGHT TO 2 PM)             1
WIND DIRECTION                         270  DEGREES (C IF CALM)
WIND SPEED                             5    MPH
MAX TEMP (2 PM - 2 PM)                 94   DEGREES FAHRENHEIT
MIN TEMP (2 PM - 2 PM)                 57   DEGREES FAHRENHEIT
MAX RH (2 PM - 2 PM)                   32   PERCENT
MIN RH (2 PM - 2 PM)                   8    PERCENT
PCPN DURATION                          0.0  HOURS
PCPN AMT (2 PM - 2 PM)                 0.0  INCHES
LAL (2 PM - 2 PM)                      1

$$

METAR KGJT 311953Z 27004KT 10SM CLR 32/05 A3021 RMK AO2 SLP154
      T03170050




000
SHUS65 KGJT 312016
FWOGJT

DAILY FIRE WEATHER OBSERVATION
NATIONAL WEATHER SERVICE GRAND JUNCTION CO
212 PM MDT FRI JUL 31 2015

STATE OF THE WEATHER (W)               0
DRY BULB TEMPERATURE                   89   DEGREES FAHRENHEIT
RELATIVE HUMIDITY (RH)                 19   PERCENT
LIGHTNING ACTIVITY LEVEL
  (LAL - MIDNIGHT TO 2 PM)             1
WIND DIRECTION                         270  DEGREES (C IF CALM)
WIND SPEED                             5    MPH
MAX TEMP (2 PM - 2 PM)                 94   DEGREES FAHRENHEIT
MIN TEMP (2 PM - 2 PM)                 57   DEGREES FAHRENHEIT
MAX RH (2 PM - 2 PM)                   32   PERCENT
MIN RH (2 PM - 2 PM)                   8    PERCENT
PCPN DURATION                          0.0  HOURS
PCPN AMT (2 PM - 2 PM)                 0.0  INCHES
LAL (2 PM - 2 PM)                      1

$$

METAR KGJT 311953Z 27004KT 10SM CLR 32/05 A3021 RMK AO2 SLP154
      T03170050





000
SHUS65 KGJT 302055
FWOGJT

DAILY FIRE WEATHER OBSERVATION
NATIONAL WEATHER SERVICE GRAND JUNCTION CO
212 PM MDT THU JUL 30 2015

STATE OF THE WEATHER (W)               0
DRY BULB TEMPERATURE                   89   DEGREES FAHRENHEIT
RELATIVE HUMIDITY (RH)                 15   PERCENT
LIGHTNING ACTIVITY LEVEL
  (LAL - MIDNIGHT TO 2 PM)             1
WIND DIRECTION                         315  DEGREES (C IF CALM)
WIND SPEED                             8    MPH
MAX TEMP (2 PM - 2 PM)                 92   DEGREES FAHRENHEIT
MIN TEMP (2 PM - 2 PM)                 55   DEGREES FAHRENHEIT
MAX RH (2 PM - 2 PM)                   34   PERCENT
MIN RH (2 PM - 2 PM)                   9    PERCENT
PCPN DURATION                          0.0  HOURS
PCPN AMT (2 PM - 2 PM)                 0.0  INCHES
LAL (2 PM - 2 PM)                      1

$$

METAR KGJT 301953Z 30007G15KT 10SM CLR 32/02 A3026 RMK AO2
      SLP172 T03170022





000
SHUS65 KGJT 302055
FWOGJT

DAILY FIRE WEATHER OBSERVATION
NATIONAL WEATHER SERVICE GRAND JUNCTION CO
212 PM MDT THU JUL 30 2015

STATE OF THE WEATHER (W)               0
DRY BULB TEMPERATURE                   89   DEGREES FAHRENHEIT
RELATIVE HUMIDITY (RH)                 15   PERCENT
LIGHTNING ACTIVITY LEVEL
  (LAL - MIDNIGHT TO 2 PM)             1
WIND DIRECTION                         315  DEGREES (C IF CALM)
WIND SPEED                             8    MPH
MAX TEMP (2 PM - 2 PM)                 92   DEGREES FAHRENHEIT
MIN TEMP (2 PM - 2 PM)                 55   DEGREES FAHRENHEIT
MAX RH (2 PM - 2 PM)                   34   PERCENT
MIN RH (2 PM - 2 PM)                   9    PERCENT
PCPN DURATION                          0.0  HOURS
PCPN AMT (2 PM - 2 PM)                 0.0  INCHES
LAL (2 PM - 2 PM)                      1

$$

METAR KGJT 301953Z 30007G15KT 10SM CLR 32/02 A3026 RMK AO2
      SLP172 T03170022




000
SHUS65 KGJT 302013
FWOGJT

DAILY FIRE WEATHER OBSERVATION
NATIONAL WEATHER SERVICE GRAND JUNCTION CO
212 PM MDT THU JUL 30 2015

STATE OF THE WEATHER (W)               0
DRY BULB TEMPERATURE                   89   DEGREES FAHRENHEIT
RELATIVE HUMIDITY (RH)                 15   PERCENT
LIGHTNING ACTIVITY LEVEL
  (LAL - MIDNIGHT TO 2 PM)             1
WIND DIRECTION                         315  DEGREES (C IF CALM)
WIND SPEED                             8    MPH
MAX TEMP (2 PM - 2 PM)                 92   DEGREES FAHRENHEIT
MIN TEMP (2 PM - 2 PM)                 55   DEGREES FAHRENHEIT
MAX RH (2 PM - 2 PM)                   34   PERCENT
MIN RH (2 PM - 2 PM)                   9    PERCENT
PCPN DURATION                          0.0  HOURS
PCPN AMT (2 PM - 2 PM)                 0.0  INCHES
LAL (2 PM - 2 PM)                      1

$$

METAR KGJT 301953Z 30007G15KT 10SM CLR 32/02 A3026 RMK AO2
      SLP172 T03170022





000
SHUS65 KGJT 302013
FWOGJT

DAILY FIRE WEATHER OBSERVATION
NATIONAL WEATHER SERVICE GRAND JUNCTION CO
212 PM MDT THU JUL 30 2015

STATE OF THE WEATHER (W)               0
DRY BULB TEMPERATURE                   89   DEGREES FAHRENHEIT
RELATIVE HUMIDITY (RH)                 15   PERCENT
LIGHTNING ACTIVITY LEVEL
  (LAL - MIDNIGHT TO 2 PM)             1
WIND DIRECTION                         315  DEGREES (C IF CALM)
WIND SPEED                             8    MPH
MAX TEMP (2 PM - 2 PM)                 92   DEGREES FAHRENHEIT
MIN TEMP (2 PM - 2 PM)                 55   DEGREES FAHRENHEIT
MAX RH (2 PM - 2 PM)                   34   PERCENT
MIN RH (2 PM - 2 PM)                   9    PERCENT
PCPN DURATION                          0.0  HOURS
PCPN AMT (2 PM - 2 PM)                 0.0  INCHES
LAL (2 PM - 2 PM)                      1

$$

METAR KGJT 301953Z 30007G15KT 10SM CLR 32/02 A3026 RMK AO2
      SLP172 T03170022




    US Dept of Commerce
    National Oceanic and Atmospheric Administration
    National Weather Service
    1325 East West Highway
    Silver Spring, MD 20910
    Page Author: NWS Internet Services Team
Disclaimer
Information Quality
Credits
Glossary
Privacy Policy
Freedom of Information Act (FOIA)
About Us
Career Opportunities